Time;durP1;ratioP1;P1;durP2;ratioP2;P2;SDS_P1;SDS_P2;PMS_P1;PMS_P2;Temp;Humidity;BMP_temperature;BMP_pressure;BME280_temperature;BME280_humidity;BME280_pressure;Samples;Min_cycle;Max_cycle;Signal;HPM_P1;HPM_P2
2022/08/07 00:02:22;;;;;;;0.75;0.73;;;20.90;99.90;;;;;;5089426;28;20024;-71
2022/08/07 00:04:48;;;;;;;0.00;0.00;;;20.80;99.90;;;;;;5095587;28;20181;-72
2022/08/07 00:07:14;;;;;;;0.20;0.20;;;20.80;99.90;;;;;;5094384;28;20035;-72
2022/08/07 00:09:40;;;;;;;0.00;0.00;;;20.60;99.90;;;;;;5090929;28;20029;-72
2022/08/07 00:12:07;;;;;;;0.00;0.00;;;20.60;99.90;;;;;;5075925;28;20025;-72
2022/08/07 00:14:33;;;;;;;0.00;0.00;;;20.70;99.90;;;;;;5089403;28;20359;-72
2022/08/07 00:17:01;;;;;;;0.00;0.00;;;20.80;99.90;;;;;;5075831;28;20495;-71
2022/08/07 00:19:27;;;;;;;0.10;0.10;;;20.90;99.90;;;;;;5076082;28;20074;-73
2022/08/07 00:21:53;;;;;;;0.00;0.00;;;20.80;99.90;;;;;;5076342;28;20028;-72
2022/08/07 00:24:19;;;;;;;0.00;0.00;;;20.80;99.90;;;;;;5075146;28;20031;-73
2022/08/07 00:26:45;;;;;;;0.00;0.00;;;20.70;99.90;;;;;;5075283;28;20532;-72
2022/08/07 00:29:11;;;;;;;0.00;0.00;;;20.70;99.90;;;;;;5076401;28;20056;-73
2022/08/07 00:31:38;;;;;;;0.00;0.00;;;20.90;99.90;;;;;;5076122;28;20416;-72
2022/08/07 00:34:04;;;;;;;0.00;0.00;;;21.10;99.90;;;;;;5081741;28;20020;-73
2022/08/07 00:36:30;;;;;;;0.00;0.00;;;20.90;99.90;;;;;;5093754;28;20040;-73
2022/08/07 00:38:56;;;;;;;0.00;0.00;;;21.10;99.90;;;;;;5101152;28;20028;-73
2022/08/07 00:41:30;;;;;;;0.00;0.00;;;21.20;99.90;;;;;;5084388;28;20036;-73
2022/08/07 00:43:56;;;;;;;0.00;0.00;;;21.10;99.90;;;;;;5077098;28;20028;-73
2022/08/07 00:46:23;;;;;;;0.00;0.00;;;21.20;99.90;;;;;;5077869;28;20417;-72
2022/08/07 00:48:49;;;;;;;0.00;0.00;;;21.30;99.90;;;;;;5086063;28;20021;-73
2022/08/07 00:51:15;;;;;;;0.00;0.00;;;21.70;99.90;;;;;;5087886;28;20019;-73
2022/08/07 00:53:41;;;;;;;0.00;0.00;;;21.80;99.90;;;;;;5085579;28;20077;-73
2022/08/07 00:56:10;;;;;;;0.00;0.00;;;22.20;99.90;;;;;;5088775;28;20103;-72
2022/08/07 00:58:36;;;;;;;0.00;0.00;;;22.50;99.90;;;;;;5084798;28;20031;-72
2022/08/07 01:01:04;;;;;;;0.00;0.00;;;23.10;99.90;;;;;;5089550;28;20036;-72
2022/08/07 01:03:30;;;;;;;0.00;0.00;;;23.70;96.00;;;;;;5087077;28;20032;-72
2022/08/07 01:05:57;;;;;;;0.00;0.00;;;24.20;94.50;;;;;;5090886;28;20020;-73
2022/08/07 01:08:23;;;;;;;0.00;0.00;;;24.70;90.50;;;;;;5087524;28;20020;-73
2022/08/07 01:10:49;;;;;;;0.00;0.00;;;25.20;86.10;;;;;;5077943;28;20352;-73
2022/08/07 01:13:15;;;;;;;0.00;0.00;;;25.50;85.10;;;;;;5081682;28;20032;-73
2022/08/07 01:15:42;;;;;;;0.00;0.00;;;25.80;78.20;;;;;;5085607;28;20028;-73
2022/08/07 01:18:09;;;;;;;0.00;0.00;;;26.10;73.20;;;;;;5094412;28;20024;-73
2022/08/07 01:20:43;;;;;;;0.00;0.00;;;26.30;73.40;;;;;;5077627;28;20032;-73
2022/08/07 01:23:11;;;;;;;0.00;0.00;;;26.60;72.80;;;;;;5089649;28;20091;-73
2022/08/07 01:25:39;;;;;;;27.75;19.55;;;27.00;67.70;;;;;;5091169;28;20028;-74
2022/08/07 01:28:05;;;;;;;0.00;0.00;;;26.70;68.30;;;;;;5091882;28;20119;-73
2022/08/07 01:30:32;;;;;;;0.17;0.17;;;26.80;69.10;;;;;;5087163;28;20069;-74
2022/08/07 01:33:00;;;;;;;0.13;0.13;;;26.90;68.80;;;;;;5081985;28;20043;-74
2022/08/07 01:35:26;;;;;;;0.00;0.00;;;26.80;68.00;;;;;;5085843;28;20558;-74
2022/08/07 01:37:52;;;;;;;3.33;1.45;;;26.80;70.00;;;;;;5079179;28;20028;-73
2022/08/07 01:40:20;;;;;;;11.80;3.10;;;26.80;68.40;;;;;;5088685;28;20046;-73
2022/08/07 01:42:47;;;;;;;0.40;0.40;;;26.60;69.20;;;;;;5084802;28;20034;-74
2022/08/07 01:45:14;;;;;;;0.20;0.20;;;26.40;69.00;;;;;;5080149;28;20031;-73
2022/08/07 01:47:40;;;;;;;0.00;0.00;;;26.20;70.10;;;;;;5073240;28;20066;-74
2022/08/07 01:50:07;;;;;;;1.88;1.75;;;26.00;71.30;;;;;;5077707;28;20046;-74
2022/08/07 01:52:35;;;;;;;0.40;0.40;;;26.30;70.50;;;;;;5084475;28;20023;-74
2022/08/07 01:55:02;;;;;;;4.75;2.30;;;26.30;70.50;;;;;;5084147;28;20027;-73
2022/08/07 01:57:33;;;;;;;2.72;2.63;;;26.40;70.50;;;;;;5089981;28;20461;-74
2022/08/07 02:00:07;;;;;;;3.13;2.40;;;26.30;70.00;;;;;;5084278;28;20047;-74
2022/08/07 02:02:41;;;;;;;0.10;0.10;;;26.60;69.60;;;;;;5083944;28;20516;-73
2022/08/07 02:05:12;;;;;;;0.00;0.00;;;26.50;70.00;;;;;;5080185;28;20027;-74
2022/08/07 02:07:44;;;;;;;0.45;0.45;;;26.90;68.20;;;;;;5080725;28;20028;-73
2022/08/07 02:10:12;;;;;;;0.10;0.10;;;27.00;67.10;;;;;;5080254;28;20021;-72
2022/08/07 02:12:42;;;;;;;0.10;0.10;;;27.90;64.00;;;;;;5077702;28;20088;-73
2022/08/07 02:15:10;;;;;;;0.35;0.15;;;28.80;62.70;;;;;;5080982;28;20507;-73
2022/08/07 02:17:39;;;;;;;0.00;0.00;;;29.20;58.40;;;;;;5074862;28;20063;-74
2022/08/07 02:20:07;;;;;;;0.10;0.10;;;29.60;57.10;;;;;;5085688;28;20065;-73
2022/08/07 02:22:36;;;;;;;0.00;0.00;;;29.70;55.90;;;;;;5087551;28;20017;-73
2022/08/07 02:25:06;;;;;;;1.35;1.25;;;30.00;55.00;;;;;;5087607;28;20115;-74
2022/08/07 02:27:34;;;;;;;0.00;0.00;;;29.40;54.40;;;;;;5088498;28;20016;-74
2022/08/07 02:30:02;;;;;;;0.00;0.00;;;29.40;54.10;;;;;;5079616;28;20031;-74
2022/08/07 02:32:29;;;;;;;0.00;0.00;;;30.50;53.10;;;;;;5077184;28;20078;-75
2022/08/07 02:34:57;;;;;;;0.10;0.10;;;31.40;51.30;;;;;;5089117;28;20019;-74
2022/08/07 02:37:25;;;;;;;0.25;0.25;;;32.20;51.10;;;;;;5090314;28;21205;-74
2022/08/07 02:39:52;;;;;;;0.05;0.05;;;31.30;50.00;;;;;;5090606;28;20020;-74
2022/08/07 02:42:19;;;;;;;0.00;0.00;;;29.80;53.80;;;;;;5078360;28;20025;-73
2022/08/07 02:44:48;;;;;;;0.00;0.00;;;30.50;52.10;;;;;;5090044;28;20061;-73
2022/08/07 02:47:17;;;;;;;0.00;0.00;;;31.50;51.50;;;;;;5083139;28;20020;-74
2022/08/07 02:49:44;;;;;;;0.00;0.00;;;32.10;50.40;;;;;;5084709;28;20374;-74
2022/08/07 02:52:16;;;;;;;0.22;0.10;;;32.60;49.40;;;;;;5081312;28;20075;-73
2022/08/07 02:54:47;;;;;;;0.20;0.20;;;31.30;49.90;;;;;;5086460;28;20027;-73
2022/08/07 02:57:14;;;;;;;16.65;1.88;;;31.20;49.50;;;;;;5079990;28;20020;-73
2022/08/07 02:59:47;;;;;;;3.17;2.92;;;30.70;50.00;;;;;;5076636;28;20028;-74
2022/08/07 03:02:15;;;;;;;0.43;0.43;;;30.50;51.20;;;;;;5077464;28;20367;-75
2022/08/07 03:04:44;;;;;;;0.00;0.00;;;29.70;52.60;;;;;;5079175;28;20396;-74
2022/08/07 03:07:11;;;;;;;0.85;0.85;;;29.60;52.70;;;;;;5079720;28;20020;-74
2022/08/07 03:09:38;;;;;;;0.68;0.68;;;30.30;52.40;;;;;;5083865;28;20032;-74
2022/08/07 03:12:05;;;;;;;0.80;0.80;;;31.70;51.10;;;;;;5083042;28;20033;-74
2022/08/07 03:14:35;;;;;;;0.00;0.00;;;31.20;50.70;;;;;;5084105;28;20028;-74
2022/08/07 03:17:02;;;;;;;1.70;1.60;;;31.30;51.30;;;;;;5081923;28;20076;-73
2022/08/07 03:19:29;;;;;;;0.10;0.10;;;30.80;52.90;;;;;;5083382;28;20038;-74
2022/08/07 03:21:55;;;;;;;0.98;0.98;;;28.50;57.60;;;;;;5085396;28;20069;-73
2022/08/07 03:24:25;;;;;;;0.75;0.75;;;28.90;57.90;;;;;;5083979;28;20546;-73
2022/08/07 03:26:52;;;;;;;4.50;2.85;;;29.20;56.60;;;;;;5081445;28;20024;-74
2022/08/07 03:29:18;;;;;;;2.85;2.70;;;28.80;56.60;;;;;;5083256;28;20291;-74
2022/08/07 03:31:47;;;;;;;4.15;1.40;;;28.10;57.80;;;;;;5079974;28;20389;-75
2022/08/07 03:34:16;;;;;;;0.40;0.40;;;27.90;58.60;;;;;;5084492;28;20032;-73
2022/08/07 03:36:44;;;;;;;0.45;0.32;;;27.10;61.00;;;;;;5084042;28;20131;-74
2022/08/07 03:39:12;;;;;;;3.28;2.08;;;26.90;61.80;;;;;;5082457;28;20486;-73
2022/08/07 03:41:39;;;;;;;2.08;0.77;;;26.60;61.80;;;;;;5084443;28;20028;-74
2022/08/07 03:44:08;;;;;;;7.22;0.90;;;26.50;61.70;;;;;;5079843;28;20021;-74
2022/08/07 03:46:36;;;;;;;0.00;0.00;;;26.30;62.40;;;;;;5081460;28;20417;-75
2022/08/07 03:49:02;;;;;;;2.42;0.50;;;26.50;62.00;;;;;;5090032;28;20328;-73
2022/08/07 03:51:30;;;;;;;2.63;2.20;;;26.60;60.70;;;;;;5085176;28;20535;-73
2022/08/07 03:53:56;;;;;;;0.28;0.28;;;26.60;60.40;;;;;;5086702;28;20036;-73
2022/08/07 03:56:24;;;;;;;0.03;0.03;;;26.70;59.80;;;;;;5082819;28;20020;-73
2022/08/07 03:58:50;;;;;;;1.00;1.00;;;26.60;59.60;;;;;;5082887;28;20020;-74
2022/08/07 04:01:18;;;;;;;0.40;0.40;;;26.80;59.40;;;;;;5082141;28;20024;-72
2022/08/07 04:03:44;;;;;;;3.10;1.42;;;26.90;59.40;;;;;;5083864;28;20027;-74
2022/08/07 04:06:11;;;;;;;1.85;1.77;;;26.90;58.50;;;;;;5081330;28;20037;-73
2022/08/07 04:08:44;;;;;;;1.88;0.45;;;27.00;57.50;;;;;;5088223;28;20111;-73
2022/08/07 04:11:10;;;;;;;0.52;0.52;;;27.20;59.60;;;;;;5087754;28;20019;-73
2022/08/07 04:13:37;;;;;;;0.40;0.40;;;27.20;60.10;;;;;;5085604;28;20694;-73
2022/08/07 04:16:04;;;;;;;0.95;0.65;;;27.40;59.20;;;;;;5082811;28;20027;-73
2022/08/07 04:18:30;;;;;;;5.57;1.17;;;27.40;58.00;;;;;;5085083;28;20354;-72
2022/08/07 04:20:56;;;;;;;0.00;0.00;;;27.10;57.60;;;;;;5081850;28;20382;-73
2022/08/07 04:23:24;;;;;;;0.10;0.10;;;27.10;58.30;;;;;;5083698;28;20028;-73
2022/08/07 04:25:51;;;;;;;0.00;0.00;;;27.30;58.30;;;;;;5088303;28;20055;-73
2022/08/07 04:28:18;;;;;;;9.95;1.05;;;27.70;57.70;;;;;;5081637;28;20023;-74
2022/08/07 04:30:48;;;;;;;0.70;0.70;;;28.00;56.60;;;;;;5086286;28;20515;-73
2022/08/07 04:33:16;;;;;;;0.00;0.00;;;28.20;55.00;;;;;;5081420;28;20027;-73
2022/08/07 04:35:45;;;;;;;0.00;0.00;;;27.70;56.10;;;;;;5078074;28;20047;-73
2022/08/07 04:38:12;;;;;;;0.00;0.00;;;27.40;57.00;;;;;;5080062;28;20028;-73
2022/08/07 04:40:41;;;;;;;0.00;0.00;;;27.60;55.90;;;;;;5084836;28;20028;-73
2022/08/07 04:43:07;;;;;;;0.08;0.08;;;27.60;54.20;;;;;;5079663;28;20039;-74
2022/08/07 04:45:52;;;;;;;0.15;0.10;;;27.70;55.40;;;;;;5086240;28;20470;-75
2022/08/07 04:48:46;;;;;;;2.65;0.75;;;27.60;54.80;;;;;;5082083;28;20371;-73
2022/08/07 04:51:32;;;;;;;0.05;0.00;;;27.60;54.50;;;;;;5081662;28;20024;-74
2022/08/07 04:54:17;;;;;;;0.10;0.10;;;27.50;54.60;;;;;;5081419;28;20036;-73
2022/08/07 04:56:55;;;;;;;0.10;0.10;;;27.60;55.30;;;;;;5085269;28;20139;-73
2022/08/07 04:59:33;;;;;;;0.47;0.47;;;28.00;55.00;;;;;;5078808;28;20344;-73
2022/08/07 05:02:07;;;;;;;0.00;0.00;;;27.70;54.70;;;;;;5079780;28;20028;-74
2022/08/07 05:04:54;;;;;;;0.00;0.00;;;27.70;55.20;;;;;;5082943;28;20036;-74
2022/08/07 05:07:29;;;;;;;0.00;0.00;;;28.10;54.40;;;;;;5081212;28;20048;-71
2022/08/07 05:10:04;;;;;;;16.00;2.47;;;28.40;53.80;;;;;;5080695;28;20470;-74
2022/08/07 05:12:37;;;;;;;0.00;0.00;;;28.60;53.70;;;;;;5087151;28;20028;-72
2022/08/07 05:15:17;;;;;;;0.00;0.00;;;28.30;54.10;;;;;;5084635;28;20067;-73
2022/08/07 05:17:46;;;;;;;0.28;0.28;;;28.20;54.60;;;;;;5082879;28;20355;-73
2022/08/07 05:20:25;;;;;;;0.10;0.10;;;28.30;54.40;;;;;;5080694;28;20024;-73
2022/08/07 05:22:55;;;;;;;0.10;0.10;;;28.30;55.00;;;;;;5079898;28;20027;-73
2022/08/07 05:25:22;;;;;;;0.90;0.90;;;28.30;54.30;;;;;;5081531;28;20024;-72
2022/08/07 05:27:50;;;;;;;0.00;0.00;;;27.90;55.30;;;;;;5081644;28;20557;-72
2022/08/07 05:30:17;;;;;;;0.00;0.00;;;28.10;54.50;;;;;;5084252;28;20020;-72
2022/08/07 05:32:46;;;;;;;1.17;1.08;;;28.50;53.70;;;;;;5086923;28;20351;-73
2022/08/07 05:35:14;;;;;;;0.38;0.38;;;28.10;54.00;;;;;;5084567;28;20089;-72
2022/08/07 05:37:41;;;;;;;0.20;0.20;;;28.10;53.90;;;;;;5090224;28;20061;-73
2022/08/07 05:40:09;;;;;;;0.00;0.00;;;28.20;53.50;;;;;;5081166;28;20477;-73
2022/08/07 05:42:36;;;;;;;0.00;0.00;;;28.30;51.60;;;;;;5082867;28;20020;-73
2022/08/07 05:45:05;;;;;;;0.00;0.00;;;28.30;52.70;;;;;;5079326;28;20547;-73
2022/08/07 05:47:32;;;;;;;0.00;0.00;;;28.70;52.30;;;;;;5082162;28;20471;-73
2022/08/07 05:50:01;;;;;;;0.28;0.28;;;29.00;51.50;;;;;;5083647;28;20066;-73
2022/08/07 05:52:29;;;;;;;0.05;0.05;;;29.00;52.20;;;;;;5085788;28;20016;-72
2022/08/07 05:54:55;;;;;;;0.00;0.00;;;29.30;52.90;;;;;;5087576;28;20061;-73
2022/08/07 05:57:23;;;;;;;0.00;0.00;;;29.20;52.80;;;;;;5083107;28;20427;-73
2022/08/07 05:59:50;;;;;;;4.57;4.28;;;29.30;52.70;;;;;;5081355;28;20042;-74
2022/08/07 06:02:19;;;;;;;0.40;0.38;;;29.40;50.80;;;;;;5084704;28;20402;-75
2022/08/07 06:04:56;;;;;;;0.00;0.00;;;29.30;51.20;;;;;;5087488;28;20079;-74
2022/08/07 06:07:22;;;;;;;0.60;0.28;;;29.30;51.60;;;;;;5085713;28;20528;-74
2022/08/07 06:09:49;;;;;;;0.40;0.30;;;29.10;50.90;;;;;;5081732;28;20465;-71
2022/08/07 06:12:15;;;;;;;0.00;0.00;;;29.10;51.00;;;;;;5081521;28;20073;-74
2022/08/07 06:14:42;;;;;;;0.00;0.00;;;29.20;51.80;;;;;;5076559;28;20044;-75
2022/08/07 06:17:11;;;;;;;16.35;1.45;;;29.30;50.00;;;;;;5083502;28;20024;-74
2022/08/07 06:19:39;;;;;;;0.47;0.32;;;29.40;49.90;;;;;;5080314;28;20039;-75
2022/08/07 06:22:09;;;;;;;0.10;0.10;;;29.60;47.70;;;;;;5073556;28;20028;-73
2022/08/07 06:24:35;;;;;;;3.65;0.60;;;29.50;48.40;;;;;;5080564;28;20024;-73
2022/08/07 06:27:03;;;;;;;0.00;0.00;;;29.40;48.50;;;;;;5073801;28;20100;-77
2022/08/07 06:29:33;;;;;;;0.55;0.55;;;29.10;50.20;;;;;;5076459;28;20016;-75
2022/08/07 06:31:59;;;;;;;0.25;0.25;;;29.10;50.90;;;;;;5082000;28;20142;-75
2022/08/07 06:34:26;;;;;;;0.10;0.10;;;29.20;51.10;;;;;;5082530;28;20020;-74
2022/08/07 06:36:53;;;;;;;0.45;0.45;;;28.90;50.80;;;;;;5079379;28;20048;-74
2022/08/07 06:39:21;;;;;;;0.00;0.00;;;28.70;51.40;;;;;;5081645;28;20040;-73
2022/08/07 06:42:03;;;;;;;0.60;0.22;;;29.00;50.90;;;;;;5082180;28;21584;-74
2022/08/07 06:44:30;;;;;;;0.63;0.60;;;29.20;51.20;;;;;;5081411;28;20020;-73
2022/08/07 06:46:56;;;;;;;0.22;0.22;;;29.10;51.00;;;;;;5083650;28;20036;-72
2022/08/07 06:49:23;;;;;;;4.07;0.70;;;29.30;49.90;;;;;;5084994;28;20406;-74
2022/08/07 06:51:51;;;;;;;0.40;0.40;;;29.20;50.90;;;;;;5086289;28;20912;-74
2022/08/07 06:54:19;;;;;;;0.32;0.32;;;29.10;50.10;;;;;;5083475;28;20085;-74
2022/08/07 06:56:46;;;;;;;0.00;0.00;;;29.10;49.60;;;;;;5088273;28;20059;-76
2022/08/07 06:59:21;;;;;;;0.15;0.15;;;29.10;49.70;;;;;;5083955;28;20111;-73
2022/08/07 07:01:49;;;;;;;0.10;0.10;;;29.60;49.90;;;;;;5092702;28;20025;-73
2022/08/07 07:04:16;;;;;;;0.00;0.00;;;29.40;49.30;;;;;;5094145;28;20169;-75
2022/08/07 07:06:43;;;;;;;1.17;1.13;;;29.60;50.50;;;;;;5090216;28;20052;-73
2022/08/07 07:09:21;;;;;;;0.40;0.20;;;29.30;49.30;;;;;;5090091;28;20024;-72
2022/08/07 07:12:06;;;;;;;0.63;0.43;;;29.50;49.40;;;;;;5087470;28;20024;-73
2022/08/07 07:14:51;;;;;;;0.00;0.00;;;29.20;49.90;;;;;;5083986;28;20093;-73
2022/08/07 07:17:34;;;;;;;0.40;0.38;;;29.50;49.10;;;;;;5087317;28;20043;-74
2022/08/07 07:20:07;;;;;;;0.20;0.15;;;29.70;48.60;;;;;;5082338;28;20112;-75
2022/08/07 07:22:33;;;;;;;0.20;0.20;;;29.70;48.80;;;;;;5085252;28;20051;-75
2022/08/07 07:25:02;;;;;;;0.00;0.00;;;29.60;47.80;;;;;;5086304;28;20058;-71
2022/08/07 07:27:34;;;;;;;1.75;0.55;;;29.70;48.00;;;;;;5084996;28;20367;-73
2022/08/07 07:30:03;;;;;;;0.00;0.00;;;29.60;47.40;;;;;;5085373;28;20020;-74
2022/08/07 07:32:37;;;;;;;0.00;0.00;;;29.40;46.60;;;;;;5081837;28;20432;-74
2022/08/07 07:35:05;;;;;;;0.10;0.10;;;29.30;47.50;;;;;;5080585;28;20029;-73
2022/08/07 07:37:35;;;;;;;0.10;0.10;;;29.50;47.50;;;;;;5087294;28;20032;-73
2022/08/07 07:40:06;;;;;;;0.00;0.00;;;29.40;47.00;;;;;;5088442;28;20428;-73
2022/08/07 07:42:34;;;;;;;0.98;0.98;;;29.60;47.60;;;;;;5092319;28;20069;-72
2022/08/07 07:45:03;;;;;;;0.00;0.00;;;29.80;47.10;;;;;;5092635;28;20021;-73
2022/08/07 07:47:30;;;;;;;0.95;0.30;;;29.60;47.20;;;;;;5086604;28;20024;-73
2022/08/07 07:49:58;;;;;;;0.60;0.60;;;29.90;46.50;;;;;;5089910;28;20020;-73
2022/08/07 07:52:25;;;;;;;1.70;0.60;;;29.80;47.20;;;;;;5091620;28;20494;-73
2022/08/07 07:54:54;;;;;;;0.00;0.00;;;29.80;46.80;;;;;;5083010;28;20039;-73
2022/08/07 07:57:23;;;;;;;0.00;0.00;;;29.90;46.80;;;;;;5085673;28;20150;-73
2022/08/07 07:59:50;;;;;;;3.13;2.92;;;29.30;47.90;;;;;;5083755;28;20035;-73
2022/08/07 08:02:20;;;;;;;0.00;0.00;;;29.60;49.10;;;;;;5086438;28;20024;-74
2022/08/07 08:04:47;;;;;;;0.15;0.08;;;29.80;48.20;;;;;;5086240;28;20036;-73
2022/08/07 08:07:14;;;;;;;0.25;0.25;;;30.00;48.30;;;;;;5089085;28;20028;-75
2022/08/07 08:09:41;;;;;;;0.00;0.00;;;29.80;47.90;;;;;;5088569;28;20661;-74
2022/08/07 08:12:08;;;;;;;0.00;0.00;;;30.00;47.80;;;;;;5087233;28;20070;-74
2022/08/07 08:14:35;;;;;;;0.00;0.00;;;30.30;47.80;;;;;;5089422;28;20034;-74
2022/08/07 08:17:03;;;;;;;0.50;0.50;;;30.20;47.90;;;;;;5081955;28;20078;-76
2022/08/07 08:19:32;;;;;;;1.25;1.13;;;30.10;47.70;;;;;;5087865;28;20032;-76
2022/08/07 08:27:39;;;;;;;0.20;0.20;;;30.60;46.30;;;;;;5081520;28;20113;-72
2022/08/07 08:30:07;;;;;;;0.00;0.00;;;30.90;47.20;;;;;;5078330;28;20452;-74
2022/08/07 08:32:42;;;;;;;0.45;0.45;;;31.30;45.90;;;;;;5085408;28;20395;-73
2022/08/07 08:35:12;;;;;;;0.32;0.32;;;31.30;44.20;;;;;;5081214;28;20115;-74
2022/08/07 08:37:42;;;;;;;0.22;0.22;;;31.20;45.10;;;;;;5086356;28;20439;-73
2022/08/07 08:40:14;;;;;;;0.17;0.17;;;31.20;45.00;;;;;;5080385;28;20050;-73
2022/08/07 08:42:57;;;;;;;0.30;0.30;;;31.50;43.90;;;;;;5077989;28;20113;-74
2022/08/07 08:45:42;;;;;;;0.00;0.00;;;30.80;45.50;;;;;;5078511;28;20354;-73
2022/08/07 08:48:35;;;;;;;0.32;0.20;;;31.00;45.10;;;;;;5082253;28;20378;-72
2022/08/07 08:51:09;;;;;;;0.00;0.00;;;31.10;44.80;;;;;;5081025;28;20107;-74
2022/08/07 08:53:54;;;;;;;1.25;0.65;;;30.70;45.80;;;;;;5086827;28;20028;-73
2022/08/07 08:56:43;;;;;;;0.68;0.43;;;30.70;45.90;;;;;;5086911;28;20455;-74
2022/08/07 08:59:19;;;;;;;0.03;0.00;;;30.60;45.50;;;;;;5077896;28;20028;-73
2022/08/07 09:02:07;;;;;;;0.10;0.10;;;30.50;46.30;;;;;;5079268;28;20028;-73
2022/08/07 09:05:05;;;;;;;0.28;0.28;;;30.50;46.50;;;;;;5085938;28;20374;-74
2022/08/07 09:07:37;;;;;;;0.00;0.00;;;30.50;45.70;;;;;;5090537;28;20524;-73
2022/08/07 09:10:16;;;;;;;0.00;0.00;;;30.60;45.10;;;;;;5081275;28;20067;-74
2022/08/07 09:12:42;;;;;;;2.00;1.90;;;30.90;45.20;;;;;;5080326;28;20032;-74
2022/08/07 09:15:33;;;;;;;0.35;0.35;;;30.80;44.60;;;;;;5079014;28;20078;-74
2022/08/07 09:18:02;;;;;;;0.00;0.00;;;30.50;45.60;;;;;;5078592;28;20039;-75
2022/08/07 09:20:37;;;;;;;0.00;0.00;;;30.60;46.10;;;;;;5077999;28;20025;-75
2022/08/07 09:23:18;;;;;;;2.10;2.00;;;30.70;45.30;;;;;;5077104;28;20021;-75
2022/08/07 09:26:00;;;;;;;1.38;1.25;;;30.90;45.00;;;;;;5074182;28;20352;-73
2022/08/07 09:28:37;;;;;;;0.47;0.40;;;31.10;45.50;;;;;;5081715;28;20028;-75
2022/08/07 09:31:31;;;;;;;0.00;0.00;;;31.00;44.60;;;;;;5080184;28;20016;-73
2022/08/07 09:34:04;;;;;;;0.30;0.17;;;30.80;43.80;;;;;;5080176;28;20518;-73
2022/08/07 09:36:52;;;;;;;0.30;0.20;;;31.00;43.80;;;;;;5081282;28;20440;-72
2022/08/07 09:39:26;;;;;;;0.00;0.00;;;31.10;44.80;;;;;;5082477;28;20120;-73
2022/08/07 09:42:08;;;;;;;0.00;0.00;;;31.20;43.60;;;;;;5081654;28;20048;-73
2022/08/07 09:44:48;;;;;;;0.05;0.05;;;31.10;42.10;;;;;;5079703;28;20474;-73
2022/08/07 09:47:35;;;;;;;0.00;0.00;;;31.10;42.50;;;;;;5084255;28;20417;-73
2022/08/07 09:50:19;;;;;;;0.05;0.05;;;31.30;43.00;;;;;;5083610;28;20017;-73
2022/08/07 09:53:00;;;;;;;0.10;0.10;;;31.30;42.10;;;;;;5088951;28;20035;-73
2022/08/07 09:55:37;;;;;;;0.03;0.03;;;30.70;43.60;;;;;;5089219;28;20404;-73
2022/08/07 09:58:34;;;;;;;0.43;0.43;;;30.40;43.90;;;;;;5082163;28;20021;-75
2022/08/07 10:01:27;;;;;;;0.20;0.20;;;30.30;44.20;;;;;;5083318;28;20016;-73
2022/08/07 10:04:14;;;;;;;0.00;0.00;;;30.40;44.40;;;;;;5082255;28;20044;-73
2022/08/07 10:06:51;;;;;;;0.00;0.00;;;30.80;44.10;;;;;;5084377;28;20077;-73
2022/08/07 10:09:42;;;;;;;0.00;0.00;;;31.20;44.20;;;;;;5080916;28;20062;-73
2022/08/07 10:12:38;;;;;;;0.00;0.00;;;31.00;44.40;;;;;;5090781;28;20031;-73
2022/08/07 10:15:24;;;;;;;0.00;0.00;;;31.00;43.50;;;;;;5085291;28;20024;-72
2022/08/07 10:18:14;;;;;;;0.00;0.00;;;30.90;43.50;;;;;;5081872;28;20032;-73
2022/08/07 10:20:49;;;;;;;0.10;0.10;;;30.90;43.70;;;;;;5076895;28;20029;-73
2022/08/07 10:23:17;;;;;;;0.00;0.00;;;30.90;43.20;;;;;;5087564;28;20370;-72
2022/08/07 10:25:53;;;;;;;0.00;0.00;;;30.80;43.80;;;;;;5088677;28;20099;-72
2022/08/07 10:28:37;;;;;;;0.00;0.00;;;31.00;44.20;;;;;;5080650;28;20028;-72
2022/08/07 10:31:33;;;;;;;0.00;0.00;;;31.20;43.10;;;;;;5081163;28;20032;-72
2022/08/07 10:34:19;;;;;;;0.00;0.00;;;31.40;42.60;;;;;;5082855;28;20159;-73
2022/08/07 10:37:07;;;;;;;0.00;0.00;;;31.50;42.20;;;;;;5084071;28;20087;-74
2022/08/07 10:39:44;;;;;;;0.08;0.08;;;31.40;41.50;;;;;;5085194;28;20048;-72
2022/08/07 10:42:47;;;;;;;0.65;0.22;;;30.80;41.40;;;;;;5086412;28;20070;-75
2022/08/07 10:45:36;;;;;;;0.00;0.00;;;30.50;41.90;;;;;;5082671;28;20059;-75
2022/08/07 10:48:23;;;;;;;0.20;0.00;;;30.40;41.70;;;;;;5084252;28;20063;-74
2022/08/07 10:51:25;;;;;;;1.85;1.45;;;30.20;41.80;;;;;;5079116;28;20127;-75
2022/08/07 10:54:25;;;;;;;0.68;0.52;;;30.20;41.60;;;;;;5083107;28;20538;-74
2022/08/07 10:57:18;;;;;;;0.17;0.17;;;30.30;41.20;;;;;;5088981;28;20031;-74
2022/08/07 10:59:57;;;;;;;2.03;0.65;;;30.30;41.20;;;;;;5085095;28;20032;-75
2022/08/07 11:02:54;;;;;;;0.00;0.00;;;30.20;41.00;;;;;;5090127;28;20062;-73
2022/08/07 11:05:48;;;;;;;0.00;0.00;;;30.20;41.00;;;;;;5088016;28;20394;-74
2022/08/07 11:08:42;;;;;;;0.52;0.52;;;30.30;41.20;;;;;;5087086;28;20020;-75
2022/08/07 11:11:32;;;;;;;0.00;0.00;;;30.10;40.60;;;;;;5081677;28;20020;-73
2022/08/07 11:14:05;;;;;;;0.05;0.05;;;29.90;41.40;;;;;;5083560;28;20115;-74
2022/08/07 11:16:38;;;;;;;0.00;0.00;;;30.10;41.40;;;;;;5089643;28;20028;-74
2022/08/07 11:19:16;;;;;;;0.40;0.10;;;30.30;41.10;;;;;;5083422;28;20016;-74
2022/08/07 11:22:06;;;;;;;0.00;0.00;;;30.60;40.60;;;;;;5085982;28;20028;-73
2022/08/07 11:24:45;;;;;;;0.00;0.00;;;30.40;40.90;;;;;;5083472;28;20089;-74
2022/08/07 11:27:46;;;;;;;0.10;0.10;;;30.30;41.60;;;;;;5090307;28;20367;-74
2022/08/07 11:30:18;;;;;;;0.25;0.20;;;30.10;41.50;;;;;;5083848;28;20032;-74
2022/08/07 11:33:02;;;;;;;0.00;0.00;;;30.20;41.30;;;;;;5092610;28;20381;-75
2022/08/07 11:36:21;;;;;;;0.05;0.05;;;30.30;41.80;;;;;;5090024;28;20454;-75
2022/08/07 11:39:19;;;;;;;0.00;0.00;;;30.50;41.20;;;;;;5044003;28;20063;-74
2022/08/07 11:42:02;;;;;;;16.85;15.02;;;30.40;42.20;;;;;;5092684;28;20557;-74
2022/08/07 11:44:54;;;;;;;0.43;0.10;;;30.20;42.60;;;;;;5094159;28;20028;-74
2022/08/07 11:47:37;;;;;;;0.00;0.00;;;30.20;42.60;;;;;;5093359;28;20035;-74
2022/08/07 11:50:21;;;;;;;0.45;0.35;;;30.30;42.10;;;;;;5094066;28;20020;-74
2022/08/07 11:53:19;;;;;;;0.00;0.00;;;30.30;41.80;;;;;;5090903;28;20024;-74
2022/08/07 11:56:04;;;;;;;0.00;0.00;;;30.30;42.70;;;;;;5087799;28;20029;-74
2022/08/07 11:59:03;;;;;;;0.43;0.43;;;30.50;43.30;;;;;;5079978;28;20394;-74
2022/08/07 12:01:44;;;;;;;0.08;0.08;;;30.60;41.80;;;;;;5081428;28;20036;-74
2022/08/07 12:04:22;;;;;;;1.92;1.80;;;30.50;42.60;;;;;;5082063;28;20428;-74
2022/08/07 12:07:26;;;;;;;0.00;0.00;;;30.30;43.60;;;;;;5079165;28;20087;-74
2022/08/07 12:10:04;;;;;;;0.00;0.00;;;30.10;43.40;;;;;;5082553;28;20056;-74
2022/08/07 12:12:41;;;;;;;0.00;0.00;;;30.00;43.90;;;;;;5094230;28;20375;-73
2022/08/07 12:15:16;;;;;;;0.00;0.00;;;30.20;43.00;;;;;;5094469;28;20061;-74
2022/08/07 12:18:00;;;;;;;0.00;0.00;;;30.40;42.80;;;;;;5084153;28;20079;-74
2022/08/07 12:20:41;;;;;;;0.10;0.10;;;30.60;42.20;;;;;;5084017;28;20031;-74
2022/08/07 12:23:44;;;;;;;0.00;0.00;;;30.80;43.20;;;;;;5082820;28;20050;-75
2022/08/07 12:26:32;;;;;;;0.00;0.00;;;30.80;43.30;;;;;;5086698;28;20028;-74
2022/08/07 12:29:18;;;;;;;0.10;0.10;;;30.80;43.20;;;;;;5080581;28;20066;-74
2022/08/07 12:31:56;;;;;;;0.00;0.00;;;30.60;43.10;;;;;;5084404;28;20025;-74
2022/08/07 12:34:28;;;;;;;0.00;0.00;;;30.60;43.50;;;;;;5087777;28;20036;-74
2022/08/07 12:36:56;;;;;;;0.00;0.00;;;30.70;43.80;;;;;;5087700;28;20043;-73
2022/08/07 12:39:25;;;;;;;0.17;0.17;;;30.70;44.20;;;;;;5085212;28;20016;-74
2022/08/07 12:41:53;;;;;;;0.00;0.00;;;30.50;44.60;;;;;;5089245;28;20032;-73
2022/08/07 12:44:20;;;;;;;0.00;0.00;;;30.20;45.20;;;;;;5091022;28;20027;-75
2022/08/07 12:46:54;;;;;;;0.00;0.00;;;30.20;45.70;;;;;;5093216;28;20119;-73
2022/08/07 12:49:25;;;;;;;0.05;0.05;;;30.30;45.30;;;;;;5088593;28;20019;-73
2022/08/07 12:52:24;;;;;;;0.38;0.38;;;30.40;45.40;;;;;;5090646;28;20481;-73
2022/08/07 12:55:03;;;;;;;7.13;1.27;;;30.50;45.30;;;;;;5091637;28;20197;-73
2022/08/07 12:57:36;;;;;;;0.00;0.00;;;30.40;44.90;;;;;;5091267;28;20028;-75
2022/08/07 13:00:06;;;;;;;0.00;0.00;;;30.50;44.90;;;;;;5082054;28;20485;-74
2022/08/07 13:02:35;;;;;;;0.00;0.00;;;30.40;45.30;;;;;;5091968;28;20043;-74
2022/08/07 13:05:17;;;;;;;0.00;0.00;;;30.40;45.30;;;;;;5080584;28;20028;-74
2022/08/07 13:08:12;;;;;;;0.00;0.00;;;30.40;45.10;;;;;;5086724;28;20028;-73
2022/08/07 13:11:01;;;;;;;0.00;0.00;;;30.20;45.60;;;;;;5084277;28;20031;-73
2022/08/07 13:13:30;;;;;;;0.00;0.00;;;30.30;45.70;;;;;;5083921;28;20024;-74
2022/08/07 13:16:09;;;;;;;0.00;0.00;;;30.30;45.80;;;;;;5086769;28;20023;-74
2022/08/07 13:19:00;;;;;;;0.00;0.00;;;30.20;46.10;;;;;;5082074;28;20039;-74
2022/08/07 13:21:31;;;;;;;0.00;0.00;;;30.20;46.10;;;;;;5085704;28;20377;-74
2022/08/07 13:24:10;;;;;;;0.00;0.00;;;30.20;46.70;;;;;;5084887;28;20039;-75
2022/08/07 13:26:42;;;;;;;0.30;0.30;;;29.90;46.90;;;;;;5080298;28;20359;-74